Time;durP1;ratioP1;P1;durP2;ratioP2;P2;SDS_P1;SDS_P2;PMS_P1;PMS_P2;Temp;Humidity;BMP_temperature;BMP_pressure;BME280_temperature;BME280_humidity;BME280_pressure;Samples;Min_cycle;Max_cycle;Signal;HPM_P1;HPM_P2
2023/11/23 00:02:14;;;;;;;19.00;6.27;;;6.40;99.90;;;;;;5032461;28;20026;-55
2023/11/23 00:04:40;;;;;;;12.23;4.93;;;6.40;99.90;;;;;;5032421;28;20497;-54
2023/11/23 00:07:05;;;;;;;15.83;5.60;;;6.40;99.90;;;;;;5032220;28;20474;-53
2023/11/23 00:09:31;;;;;;;17.53;5.80;;;6.40;99.90;;;;;;5032027;28;20197;-55
2023/11/23 00:11:56;;;;;;;12.97;5.93;;;6.40;99.90;;;;;;5031248;28;20025;-55
2023/11/23 00:14:22;;;;;;;13.07;5.30;;;6.50;99.90;;;;;;5031052;28;20496;-55
2023/11/23 00:16:48;;;;;;;13.53;4.93;;;6.40;99.90;;;;;;5032198;28;20362;-54
2023/11/23 00:19:13;;;;;;;15.20;4.87;;;6.40;99.90;;;;;;5031498;28;20469;-55
2023/11/23 00:21:39;;;;;;;15.47;5.50;;;6.50;99.90;;;;;;5031864;28;20033;-52
2023/11/23 00:24:05;;;;;;;17.50;5.70;;;6.50;99.90;;;;;;5031936;28;20029;-54
2023/11/23 00:26:31;;;;;;;13.20;5.67;;;6.50;99.90;;;;;;5031868;28;20032;-54
2023/11/23 00:29:00;;;;;;;14.73;5.57;;;6.50;99.90;;;;;;5030235;28;20025;-53
2023/11/23 00:31:26;;;;;;;10.70;4.40;;;6.50;99.90;;;;;;5030303;28;20037;-55
2023/11/23 00:33:52;;;;;;;15.47;6.03;;;6.60;99.90;;;;;;5030504;28;20102;-53
2023/11/23 00:36:17;;;;;;;15.33;5.63;;;6.60;99.90;;;;;;5030495;28;20033;-50
2023/11/23 00:38:43;;;;;;;14.77;5.90;;;6.60;99.90;;;;;;5029999;28;20034;-55
2023/11/23 00:41:09;;;;;;;16.07;6.67;;;6.70;99.90;;;;;;5031812;28;20128;-53
2023/11/23 00:43:35;;;;;;;17.53;6.43;;;6.80;99.90;;;;;;5030279;28;20065;-55
2023/11/23 00:46:04;;;;;;;17.43;7.00;;;6.70;99.90;;;;;;5030162;28;20025;-55
2023/11/23 00:48:29;;;;;;;16.60;6.13;;;6.60;99.90;;;;;;5030112;28;20091;-53
2023/11/23 00:50:55;;;;;;;14.80;6.57;;;6.60;99.90;;;;;;5030299;28;20037;-54
2023/11/23 00:53:21;;;;;;;15.27;6.97;;;6.70;99.90;;;;;;5030054;28;20493;-55
2023/11/23 00:55:48;;;;;;;20.23;6.40;;;6.80;99.90;;;;;;5030345;28;20116;-53
2023/11/23 00:58:14;;;;;;;15.40;5.90;;;6.90;99.90;;;;;;5013413;28;20125;-54
2023/11/23 01:00:40;;;;;;;18.67;6.83;;;7.00;99.90;;;;;;5030985;28;20120;-55
2023/11/23 01:03:06;;;;;;;14.83;6.30;;;7.10;99.90;;;;;;5029962;28;20032;-55
2023/11/23 01:05:31;;;;;;;16.97;6.10;;;7.10;99.90;;;;;;5030030;28;20038;-54
2023/11/23 01:07:57;;;;;;;16.63;6.77;;;7.10;99.90;;;;;;5030130;28;20041;-55
2023/11/23 01:10:24;;;;;;;20.43;6.77;;;7.10;99.90;;;;;;5029314;28;20128;-55
2023/11/23 01:12:51;;;;;;;17.47;6.87;;;7.10;99.90;;;;;;5029973;28;20064;-55
2023/11/23 01:15:17;;;;;;;17.23;6.57;;;7.20;99.90;;;;;;5031053;28;20049;-55
2023/11/23 01:17:43;;;;;;;16.77;7.33;;;7.20;99.90;;;;;;5030717;28;20030;-54
2023/11/23 01:20:09;;;;;;;18.37;6.87;;;7.10;99.90;;;;;;5030423;28;20032;-55
2023/11/23 01:22:36;;;;;;;20.43;7.50;;;7.20;99.90;;;;;;5013339;28;20038;-55
2023/11/23 01:25:04;;;;;;;19.03;7.20;;;7.20;99.90;;;;;;5029525;28;20497;-54
2023/11/23 01:27:29;;;;;;;17.03;7.37;;;7.10;99.90;;;;;;5029759;28;20033;-54
2023/11/23 01:29:55;;;;;;;17.13;6.23;;;7.10;99.90;;;;;;5029061;28;20389;-55
2023/11/23 01:32:21;;;;;;;20.00;7.50;;;7.10;99.90;;;;;;5029313;28;20022;-55
2023/11/23 01:34:46;;;;;;;18.53;7.00;;;7.10;99.90;;;;;;5029147;28;20491;-55
2023/11/23 01:37:12;;;;;;;18.23;6.87;;;7.10;99.90;;;;;;5030695;28;20044;-53
2023/11/23 01:39:38;;;;;;;16.07;6.43;;;7.10;99.90;;;;;;5028995;28;20084;-55
2023/11/23 01:42:04;;;;;;;24.27;8.37;;;7.00;99.90;;;;;;5029166;28;20037;-55
2023/11/23 01:44:29;;;;;;;24.10;7.13;;;6.90;99.90;;;;;;5030228;28;20031;-54
2023/11/23 01:46:55;;;;;;;19.60;7.70;;;6.90;99.90;;;;;;5030667;28;20501;-54
2023/11/23 01:49:23;;;;;;;19.13;6.90;;;6.90;99.90;;;;;;5028609;28;20445;-55
2023/11/23 01:51:48;;;;;;;22.77;7.00;;;6.90;99.90;;;;;;5030666;28;20269;-52
2023/11/23 01:54:14;;;;;;;19.50;6.73;;;6.90;99.90;;;;;;5030535;28;20390;-56
2023/11/23 01:56:42;;;;;;;21.33;7.30;;;6.90;99.90;;;;;;5030511;28;20052;-54
2023/11/23 01:59:08;;;;;;;17.43;7.27;;;6.90;99.90;;;;;;5028719;28;20120;-55
2023/11/23 02:01:34;;;;;;;21.00;7.43;;;7.00;99.90;;;;;;5029205;28;20061;-55
2023/11/23 02:04:00;;;;;;;18.67;7.47;;;7.00;99.90;;;;;;5030317;28;20536;-55
2023/11/23 02:06:26;;;;;;;18.53;7.60;;;7.10;99.90;;;;;;5029175;28;20034;-55
2023/11/23 02:08:53;;;;;;;19.80;8.47;;;7.00;99.90;;;;;;5030100;28;20090;-55
2023/11/23 02:11:19;;;;;;;15.70;7.60;;;7.00;99.90;;;;;;5029013;28;20038;-55
2023/11/23 02:13:44;;;;;;;18.00;7.03;;;7.00;99.90;;;;;;5030564;28;20030;-54
2023/11/23 02:16:10;;;;;;;19.67;7.33;;;7.00;99.90;;;;;;5029532;28;20037;-55
2023/11/23 02:18:39;;;;;;;23.93;7.57;;;7.10;99.90;;;;;;5029556;28;20037;-52
2023/11/23 02:21:05;;;;;;;22.23;8.10;;;7.20;99.90;;;;;;5029851;28;20029;-53
2023/11/23 02:23:31;;;;;;;17.60;6.73;;;7.20;99.90;;;;;;5029290;28;20197;-54
2023/11/23 02:25:57;;;;;;;19.93;7.97;;;7.20;99.90;;;;;;5030446;28;20028;-55
2023/11/23 02:28:24;;;;;;;19.77;7.57;;;7.20;99.90;;;;;;5030073;28;20103;-51
2023/11/23 02:30:50;;;;;;;17.07;7.37;;;7.20;99.90;;;;;;5028565;28;20029;-55
2023/11/23 02:33:15;;;;;;;19.23;7.47;;;7.30;99.90;;;;;;5030460;28;20037;-56
2023/11/23 02:35:41;;;;;;;21.60;7.47;;;7.30;99.90;;;;;;5028842;28;20041;-54
2023/11/23 02:38:07;;;;;;;20.47;7.97;;;7.30;99.90;;;;;;5028727;28;20030;-51
2023/11/23 02:40:32;;;;;;;19.93;8.00;;;7.30;99.90;;;;;;5028423;28;20026;-52
2023/11/23 02:42:59;;;;;;;20.50;7.73;;;7.30;99.90;;;;;;5030205;28;20293;-56
2023/11/23 02:45:24;;;;;;;23.40;8.17;;;7.40;99.90;;;;;;5029845;28;20060;-55
2023/11/23 02:47:50;;;;;;;20.77;8.93;;;7.40;99.90;;;;;;5030203;28;20112;-54
2023/11/23 02:50:16;;;;;;;20.07;8.10;;;7.40;99.90;;;;;;5029479;28;20493;-54
2023/11/23 02:52:41;;;;;;;21.27;7.63;;;7.40;99.90;;;;;;5028638;28;20037;-55
2023/11/23 02:55:09;;;;;;;18.97;7.60;;;7.40;99.90;;;;;;5030994;28;20033;-55
2023/11/23 02:57:34;;;;;;;20.00;7.70;;;7.50;99.90;;;;;;5031841;28;20559;-53
2023/11/23 03:00:00;;;;;;;21.03;8.00;;;7.50;99.90;;;;;;5031542;28;20022;-55
2023/11/23 03:02:26;;;;;;;18.93;7.77;;;7.50;99.90;;;;;;5031964;28;20152;-53
2023/11/23 03:04:53;;;;;;;24.20;8.97;;;7.50;99.90;;;;;;5032082;28;20034;-55
2023/11/23 03:07:19;;;;;;;21.63;8.37;;;7.50;99.90;;;;;;5033523;28;20029;-53
2023/11/23 03:09:45;;;;;;;24.00;9.03;;;7.50;99.90;;;;;;5032719;28;20026;-54
2023/11/23 03:12:11;;;;;;;18.40;7.73;;;7.50;99.90;;;;;;5033134;28;20475;-51
2023/11/23 03:14:37;;;;;;;21.13;8.37;;;7.50;99.90;;;;;;5032928;28;20048;-55
2023/11/23 03:17:03;;;;;;;20.70;8.47;;;7.60;99.90;;;;;;5031777;28;20126;-54
2023/11/23 03:19:29;;;;;;;18.80;7.70;;;7.60;99.90;;;;;;5031198;28;20120;-55
2023/11/23 03:21:55;;;;;;;20.83;8.20;;;7.60;99.90;;;;;;5032970;28;20501;-54
2023/11/23 03:24:21;;;;;;;25.57;9.00;;;7.60;99.90;;;;;;5032738;28;20025;-53
2023/11/23 03:26:47;;;;;;;24.17;8.77;;;7.60;99.90;;;;;;5032784;28;20036;-55
2023/11/23 03:29:12;;;;;;;24.17;9.23;;;7.60;99.90;;;;;;5032218;28;20493;-54
2023/11/23 03:31:38;;;;;;;25.43;9.30;;;7.70;99.90;;;;;;5033012;28;20021;-50
2023/11/23 03:34:05;;;;;;;26.07;9.17;;;7.70;99.90;;;;;;5032605;28;20116;-55
2023/11/23 03:36:32;;;;;;;22.27;8.60;;;7.70;99.90;;;;;;5032652;28;20056;-54
2023/11/23 03:38:58;;;;;;;19.50;8.77;;;7.70;99.90;;;;;;5030742;28;20033;-51
2023/11/23 03:41:24;;;;;;;25.97;10.00;;;7.80;99.90;;;;;;5031321;28;20415;-54
2023/11/23 03:43:50;;;;;;;18.07;8.03;;;7.80;99.90;;;;;;5032463;28;20467;-54
2023/11/23 03:46:15;;;;;;;20.57;8.10;;;7.90;99.90;;;;;;5032541;28;20025;-55
2023/11/23 03:48:41;;;;;;;25.00;9.27;;;7.90;99.90;;;;;;5032062;28;20040;-54
2023/11/23 03:51:11;;;;;;;21.57;8.03;;;8.00;99.90;;;;;;5032421;28;20037;-53
2023/11/23 03:53:37;;;;;;;21.87;8.47;;;8.00;99.90;;;;;;5032591;28;20497;-53
2023/11/23 03:56:02;;;;;;;23.77;8.70;;;8.00;99.90;;;;;;5032376;28;20029;-54
2023/11/23 03:58:28;;;;;;;19.67;8.87;;;8.00;99.90;;;;;;5031769;28;20116;-55
2023/11/23 04:00:53;;;;;;;22.43;8.57;;;8.00;99.90;;;;;;5032185;28;20474;-52
2023/11/23 04:03:19;;;;;;;22.43;8.43;;;8.00;99.90;;;;;;5032389;28;20033;-53
2023/11/23 04:05:44;;;;;;;22.17;8.23;;;8.10;99.90;;;;;;5031496;28;20029;-52
2023/11/23 04:08:10;;;;;;;27.77;8.70;;;8.10;99.90;;;;;;5031998;28;20040;-52
2023/11/23 04:10:36;;;;;;;25.70;9.23;;;8.10;99.90;;;;;;5031800;28;20281;-49
2023/11/23 04:13:01;;;;;;;19.83;8.77;;;8.10;99.90;;;;;;5030628;28;20130;-53
2023/11/23 04:15:28;;;;;;;22.70;8.97;;;8.10;99.90;;;;;;5032145;28;20147;-53
2023/11/23 04:17:54;;;;;;;22.60;9.60;;;8.10;99.90;;;;;;5031873;28;20104;-53
2023/11/23 04:20:19;;;;;;;19.97;7.93;;;8.20;99.90;;;;;;5031355;28;20554;-50
2023/11/23 04:22:45;;;;;;;23.00;9.03;;;8.20;99.90;;;;;;5031931;28;20108;-54
2023/11/23 04:25:11;;;;;;;23.23;8.97;;;8.20;99.90;;;;;;5031918;28;20068;-53
2023/11/23 04:27:36;;;;;;;17.20;6.80;;;8.20;99.90;;;;;;5031574;28;20072;-54
2023/11/23 04:30:04;;;;;;;18.13;7.57;;;8.20;99.90;;;;;;5031391;28;20029;-53
2023/11/23 04:32:31;;;;;;;23.17;8.63;;;8.30;99.90;;;;;;5031796;28;20037;-53
2023/11/23 04:34:57;;;;;;;23.30;9.73;;;8.20;99.90;;;;;;5031751;28;20048;-54
2023/11/23 04:37:23;;;;;;;21.03;9.03;;;8.30;99.90;;;;;;5031912;28;20120;-54
2023/11/23 04:39:51;;;;;;;21.67;8.63;;;8.30;99.90;;;;;;5031387;28;20565;-55
2023/11/23 04:42:16;;;;;;;23.63;9.23;;;8.30;99.90;;;;;;5031823;28;20026;-50
2023/11/23 04:44:42;;;;;;;22.70;8.97;;;8.30;99.90;;;;;;5032007;28;20017;-54
2023/11/23 04:47:08;;;;;;;20.43;8.77;;;8.30;99.90;;;;;;5031675;28;20499;-53
2023/11/23 04:49:33;;;;;;;22.20;8.80;;;8.40;99.90;;;;;;5029914;28;20025;-54
2023/11/23 04:51:59;;;;;;;23.13;8.30;;;8.40;99.90;;;;;;5031722;28;20112;-50
2023/11/23 04:54:25;;;;;;;24.10;8.87;;;8.40;99.90;;;;;;5031469;28;20486;-54
2023/11/23 04:56:51;;;;;;;25.20;8.93;;;8.50;99.90;;;;;;5031334;28;20037;-52
2023/11/23 04:59:17;;;;;;;24.50;9.27;;;8.40;99.90;;;;;;5030840;28;20033;-52
2023/11/23 05:01:43;;;;;;;24.10;9.77;;;8.50;99.90;;;;;;5031263;28;20052;-55
2023/11/23 05:04:08;;;;;;;20.93;8.77;;;8.50;99.90;;;;;;5031180;28;20088;-52
2023/11/23 05:06:35;;;;;;;24.17;9.70;;;8.50;99.90;;;;;;5031159;28;20021;-50
2023/11/23 05:09:02;;;;;;;23.07;8.67;;;8.50;99.90;;;;;;5030555;28;20486;-55
2023/11/23 05:11:28;;;;;;;23.00;9.07;;;8.50;99.90;;;;;;5031282;28;20348;-50
2023/11/23 05:13:56;;;;;;;22.43;9.50;;;8.60;99.90;;;;;;5031125;28;20083;-51
2023/11/23 05:16:22;;;;;;;27.47;9.93;;;8.60;99.90;;;;;;5031074;28;20410;-52
2023/11/23 05:18:47;;;;;;;23.27;10.53;;;8.60;99.90;;;;;;5029665;28;20482;-54
2023/11/23 05:21:13;;;;;;;25.33;9.93;;;8.70;99.90;;;;;;5030818;28;20034;-53
2023/11/23 05:23:39;;;;;;;21.90;9.07;;;8.70;99.90;;;;;;5030751;28;20029;-55
2023/11/23 05:26:05;;;;;;;21.40;9.23;;;8.80;99.90;;;;;;5030683;28;20532;-52
2023/11/23 05:28:30;;;;;;;23.20;10.10;;;8.80;99.90;;;;;;5030576;28;20409;-53
2023/11/23 05:30:57;;;;;;;22.40;10.30;;;8.80;99.90;;;;;;5030517;28;20029;-54
2023/11/23 05:33:23;;;;;;;26.93;10.57;;;8.80;99.90;;;;;;5030621;28;20061;-53
2023/11/23 05:35:48;;;;;;;24.33;9.23;;;8.90;99.90;;;;;;5030627;28;20080;-53
2023/11/23 05:38:14;;;;;;;22.73;9.47;;;8.90;99.90;;;;;;5030461;28;20121;-54
2023/11/23 05:40:39;;;;;;;24.37;10.27;;;8.90;99.90;;;;;;5030189;28;20461;-54
2023/11/23 05:43:05;;;;;;;25.20;10.77;;;8.90;99.90;;;;;;5029437;28;20084;-54
2023/11/23 05:45:32;;;;;;;21.77;9.77;;;9.00;99.90;;;;;;5031505;28;20034;-51
2023/11/23 05:47:57;;;;;;;22.70;9.60;;;9.00;99.90;;;;;;5030748;28;20029;-53
2023/11/23 05:50:23;;;;;;;25.67;9.50;;;9.00;99.90;;;;;;5028980;28;20045;-54
2023/11/23 05:52:49;;;;;;;22.60;11.00;;;9.00;99.90;;;;;;5030525;28;20033;-54
2023/11/23 05:55:15;;;;;;;25.07;10.77;;;9.00;99.90;;;;;;5030479;28;20029;-53
2023/11/23 05:57:41;;;;;;;24.97;10.40;;;9.10;99.90;;;;;;5030626;28;20033;-54
2023/11/23 06:00:09;;;;;;;24.47;10.63;;;9.10;99.90;;;;;;5029902;28;20038;-53
2023/11/23 06:02:34;;;;;;;23.33;9.60;;;9.00;99.90;;;;;;5030402;28;20051;-52
2023/11/23 06:05:00;;;;;;;20.83;9.10;;;9.00;99.90;;;;;;5030415;28;20030;-54
2023/11/23 06:07:25;;;;;;;24.13;10.30;;;9.10;99.90;;;;;;5030247;28;20021;-53
2023/11/23 06:09:51;;;;;;;22.70;9.80;;;9.10;99.90;;;;;;5029211;28;20372;-50
2023/11/23 06:12:17;;;;;;;22.63;9.53;;;9.10;99.90;;;;;;5026252;28;20025;-50
2023/11/23 06:14:42;;;;;;;23.30;9.90;;;9.10;99.90;;;;;;5022386;28;20037;-54
2023/11/23 06:17:10;;;;;;;24.97;10.07;;;9.10;99.90;;;;;;5027672;28;20080;-50
2023/11/23 06:19:39;;;;;;;19.37;8.97;;;9.10;99.90;;;;;;5036963;28;20029;-49
2023/11/23 06:22:05;;;;;;;;;;;9.10;99.90;;;;;;5043421;28;20064;-49
2023/11/23 06:24:30;;;;;;;22.87;8.97;;;9.20;99.90;;;;;;5027682;28;20000;-52
2023/11/23 06:26:56;;;;;;;26.97;9.53;;;9.10;99.90;;;;;;5033663;28;20034;-54
2023/11/23 06:29:22;;;;;;;23.67;10.30;;;9.20;99.90;;;;;;5031717;28;20075;-51
2023/11/23 06:31:50;;;;;;;25.63;10.50;;;9.20;99.90;;;;;;5031999;28;20049;-52
2023/11/23 06:34:16;;;;;;;27.27;10.50;;;9.30;99.90;;;;;;5030382;28;20039;-51
2023/11/23 06:36:41;;;;;;;24.73;10.60;;;9.30;99.90;;;;;;5032070;28;20087;-52
2023/11/23 06:39:10;;;;;;;26.47;11.10;;;9.30;99.90;;;;;;5041137;28;20432;-53
2023/11/23 06:41:37;;;;;;;25.13;10.63;;;9.40;99.90;;;;;;5052260;28;20033;-53
2023/11/23 06:44:03;;;;;;;25.80;11.10;;;9.40;99.90;;;;;;5051880;28;20025;-53
2023/11/23 06:46:29;;;;;;;25.47;9.80;;;9.40;99.90;;;;;;5050884;28;20025;-53
2023/11/23 06:48:55;;;;;;;26.57;10.57;;;9.40;99.90;;;;;;5039995;28;20095;-54
2023/11/23 06:51:21;;;;;;;24.67;10.60;;;9.40;99.90;;;;;;5038534;28;20042;-53
2023/11/23 06:53:47;;;;;;;24.50;10.57;;;9.40;99.90;;;;;;5043182;28;20108;-54
2023/11/23 06:56:13;;;;;;;22.93;10.53;;;9.40;99.90;;;;;;5046175;28;20029;-52
2023/11/23 06:58:46;;;;;;;29.47;12.13;;;9.40;99.90;;;;;;5032814;28;20057;-54
2023/11/23 07:01:12;;;;;;;24.47;10.53;;;9.50;99.90;;;;;;5051765;28;20103;-54
2023/11/23 07:03:37;;;;;;;20.43;9.63;;;9.50;99.90;;;;;;5051468;28;20537;-54
2023/11/23 07:06:04;;;;;;;22.87;10.07;;;9.50;99.90;;;;;;5039293;28;20033;-54
2023/11/23 07:08:30;;;;;;;23.60;10.07;;;9.50;99.90;;;;;;5035846;28;20047;-49
2023/11/23 07:10:57;;;;;;;22.03;9.30;;;9.60;99.90;;;;;;5034949;28;20090;-53
2023/11/23 07:13:23;;;;;;;24.17;10.23;;;9.60;99.90;;;;;;5044400;28;20029;-54
2023/11/23 07:15:48;;;;;;;25.10;9.53;;;9.60;99.90;;;;;;5049501;28;20037;-53
2023/11/23 07:18:14;;;;;;;25.33;10.63;;;9.60;99.90;;;;;;5036801;28;20025;-54
2023/11/23 07:20:40;;;;;;;18.87;9.43;;;9.60;99.90;;;;;;5031104;28;20079;-53
2023/11/23 07:23:06;;;;;;;21.67;10.40;;;9.60;99.90;;;;;;5030806;28;20072;-52
2023/11/23 07:25:32;;;;;;;19.67;9.40;;;9.60;99.90;;;;;;5047449;28;20048;-53
2023/11/23 07:27:58;;;;;;;30.30;11.13;;;9.60;99.90;;;;;;5050759;28;20476;-52
2023/11/23 07:30:23;;;;;;;28.10;10.37;;;9.60;99.90;;;;;;5050812;28;20147;-54
2023/11/23 07:32:49;;;;;;;20.83;9.80;;;9.60;99.90;;;;;;5050591;28;20031;-54
2023/11/23 07:35:15;;;;;;;23.13;10.17;;;9.60;99.90;;;;;;5036860;28;20033;-55
2023/11/23 07:37:42;;;;;;;19.30;9.43;;;9.60;99.90;;;;;;5030285;28;20482;-51
2023/11/23 07:40:14;;;;;;;21.70;9.43;;;9.70;99.90;;;;;;5029631;28;20037;-54
2023/11/23 07:42:41;;;;;;;22.23;10.20;;;9.70;99.90;;;;;;5031221;28;20128;-53
2023/11/23 07:45:07;;;;;;;20.87;9.67;;;9.70;99.90;;;;;;5050573;28;20032;-55
2023/11/23 07:47:32;;;;;;;21.33;9.83;;;9.70;99.90;;;;;;5050444;28;20335;-54
2023/11/23 07:50:00;;;;;;;27.17;10.77;;;9.70;99.90;;;;;;5049746;28;20139;-54
2023/11/23 07:52:26;;;;;;;18.60;8.60;;;9.70;99.90;;;;;;5050602;28;20158;-53
2023/11/23 07:54:52;;;;;;;20.50;10.07;;;9.80;99.90;;;;;;5042291;28;20036;-54
2023/11/23 07:57:19;;;;;;;21.87;10.37;;;9.80;99.90;;;;;;5044613;28;20040;-54
2023/11/23 07:59:45;;;;;;;25.30;10.17;;;9.80;99.90;;;;;;5029922;28;20024;-53
2023/11/23 08:02:10;;;;;;;22.73;9.80;;;9.80;99.90;;;;;;5030322;28;20119;-54
2023/11/23 08:04:37;;;;;;;21.07;9.80;;;9.80;99.90;;;;;;5030674;28;20466;-54
2023/11/23 08:07:03;;;;;;;20.37;9.70;;;9.80;99.90;;;;;;5030478;28;20029;-54
2023/11/23 08:09:29;;;;;;;21.93;10.50;;;9.80;99.90;;;;;;5030045;28;20076;-53
2023/11/23 08:11:55;;;;;;;24.57;10.90;;;9.80;99.90;;;;;;5030150;28;20026;-52
2023/11/23 08:14:21;;;;;;;21.90;9.53;;;9.90;99.90;;;;;;5030472;28;20462;-54
2023/11/23 08:16:47;;;;;;;21.63;10.27;;;9.90;99.90;;;;;;5030415;28;20041;-51
2023/11/23 08:19:16;;;;;;;22.23;9.73;;;9.90;99.90;;;;;;5042766;28;20029;-54
2023/11/23 08:21:42;;;;;;;22.58;10.13;;;9.90;99.90;;;;;;5050373;28;20052;-54
2023/11/23 08:24:08;;;;;;;22.83;9.37;;;10.00;99.90;;;;;;5035973;28;20473;-54
2023/11/23 08:26:35;;;;;;;22.43;10.33;;;10.00;99.90;;;;;;5034260;28;20029;-54
2023/11/23 08:29:03;;;;;;;23.53;10.63;;;10.00;99.90;;;;;;5037154;28;20033;-54
2023/11/23 08:31:28;;;;;;;17.67;8.63;;;10.00;99.90;;;;;;5042571;28;20036;-55
2023/11/23 08:33:57;;;;;;;21.37;9.67;;;10.10;99.90;;;;;;5047475;28;20043;-54
2023/11/23 08:36:23;;;;;;;17.52;8.88;;;10.10;99.90;;;;;;5026562;28;20033;-53
2023/11/23 08:38:50;;;;;;;19.23;8.93;;;10.20;99.90;;;;;;5038128;28;20043;-53
2023/11/23 08:41:24;;;;;;;17.43;8.27;;;10.20;99.90;;;;;;5044902;28;20474;-54
2023/11/23 08:43:50;;;;;;;17.07;8.60;;;10.30;99.90;;;;;;5030812;28;20032;-49
2023/11/23 08:46:15;;;;;;;22.87;9.57;;;10.30;99.90;;;;;;5049789;28;20021;-53
2023/11/23 08:48:41;;;;;;;19.60;9.13;;;10.30;99.90;;;;;;5041019;28;20044;-52
2023/11/23 08:51:07;;;;;;;19.80;9.33;;;10.20;99.90;;;;;;5041539;28;20055;-50
2023/11/23 08:53:33;;;;;;;20.20;8.67;;;10.30;99.90;;;;;;5042108;28;20052;-53
2023/11/23 08:55:58;;;;;;;21.17;8.60;;;10.30;99.90;;;;;;5029177;28;20080;-50
2023/11/23 08:58:24;;;;;;;21.00;9.60;;;10.20;99.90;;;;;;5034495;28;20465;-53
2023/11/23 09:00:49;;;;;;;17.37;8.53;;;10.20;99.90;;;;;;5047363;28;20025;-52
2023/11/23 09:03:15;;;;;;;18.03;9.13;;;10.20;99.90;;;;;;5049360;28;20568;-52
2023/11/23 09:05:41;;;;;;;16.63;8.50;;;10.20;99.90;;;;;;5049587;28;20158;-53
2023/11/23 09:08:07;;;;;;;18.50;8.93;;;10.20;99.90;;;;;;5046253;28;20463;-50
2023/11/23 09:10:36;;;;;;;17.87;8.10;;;10.20;99.90;;;;;;5035414;28;20642;-50
2023/11/23 09:13:02;;;;;;;20.77;8.80;;;10.30;99.90;;;;;;5048759;28;20154;-49
2023/11/23 09:15:28;;;;;;;19.83;9.10;;;10.30;99.90;;;;;;5041341;28;20118;-53
2023/11/23 09:17:56;;;;;;;18.27;9.33;;;10.30;99.90;;;;;;5047228;28;20374;-53
2023/11/23 09:20:21;;;;;;;20.67;10.43;;;10.40;99.90;;;;;;5042495;28;20025;-54
2023/11/23 09:22:47;;;;;;;19.17;9.50;;;10.30;99.90;;;;;;5046392;28;20386;-53
2023/11/23 09:25:13;;;;;;;16.33;8.60;;;10.40;99.90;;;;;;5037053;28;20517;-53
2023/11/23 09:27:39;;;;;;;18.27;9.10;;;10.40;99.90;;;;;;5042696;28;20044;-53
2023/11/23 09:30:06;;;;;;;18.97;8.33;;;10.40;99.90;;;;;;5037211;28;20111;-53
2023/11/23 09:32:33;;;;;;;17.80;8.33;;;10.40;99.90;;;;;;5029030;28;20044;-52
2023/11/23 09:34:59;;;;;;;19.67;8.83;;;10.40;99.90;;;;;;5028807;28;20053;-49
2023/11/23 09:37:26;;;;;;;17.33;9.23;;;10.40;99.90;;;;;;5048682;28;20021;-54
2023/11/23 09:39:52;;;;;;;20.13;10.50;;;10.40;99.90;;;;;;5048004;28;20037;-54
2023/11/23 09:42:18;;;;;;;20.63;8.50;;;10.40;99.90;;;;;;5046875;28;20040;-54
2023/11/23 09:44:45;;;;;;;19.20;8.73;;;10.30;99.90;;;;;;5048550;28;20360;-54
2023/11/23 09:47:13;;;;;;;17.80;8.37;;;10.30;99.90;;;;;;5036886;28;20045;-53
2023/11/23 09:49:40;;;;;;;17.73;8.32;;;10.30;99.90;;;;;;5028045;28;20091;-53
2023/11/23 09:52:06;;;;;;;18.77;8.77;;;10.30;99.90;;;;;;5028737;28;20029;-53
2023/11/23 09:54:33;;;;;;;16.90;9.03;;;10.30;99.90;;;;;;5036197;28;20021;-54
2023/11/23 09:57:02;;;;;;;15.50;8.37;;;10.30;99.90;;;;;;5029748;28;20033;-54
2023/11/23 09:59:28;;;;;;;;;;;10.30;99.90;;;;;;5040201;28;20058;-53
2023/11/23 10:02:03;;;;;;;14.63;8.33;;;10.30;99.90;;;;;;5048613;28;20376;-51
2023/11/23 10:04:29;;;;;;;18.97;9.23;;;10.30;99.90;;;;;;5050349;28;20031;-50
2023/11/23 10:06:57;;;;;;;17.60;9.43;;;10.30;99.90;;;;;;5052238;28;20037;-52
2023/11/23 10:09:26;;;;;;;18.23;8.90;;;10.30;99.90;;;;;;5046776;28;20052;-54
2023/11/23 10:11:55;;;;;;;20.85;10.18;;;10.30;99.90;;;;;;5032993;28;20063;-53
2023/11/23 10:14:21;;;;;;;17.38;8.10;;;10.30;99.90;;;;;;5031995;28;20029;-50
2023/11/23 10:16:47;;;;;;;17.77;8.60;;;10.30;99.90;;;;;;5039415;28;20032;-50
2023/11/23 10:19:22;;;;;;;21.30;10.10;;;10.30;99.90;;;;;;5040158;28;20038;-52
2023/11/23 10:21:48;;;;;;;22.87;10.20;;;10.30;99.90;;;;;;5032462;28;20018;-51
2023/11/23 10:24:16;;;;;;;21.57;9.70;;;10.30;99.90;;;;;;5050490;28;20059;-52
2023/11/23 10:26:42;;;;;;;21.90;8.83;;;10.30;99.90;;;;;;5052503;28;20032;-53
2023/11/23 10:29:12;;;;;;;20.77;9.73;;;10.30;99.90;;;;;;5041491;28;20041;-53
2023/11/23 10:31:38;;;;;;;19.60;10.10;;;10.30;99.90;;;;;;5032298;28;20029;-54
2023/11/23 10:34:04;;;;;;;20.40;10.17;;;10.30;99.90;;;;;;5041637;28;20051;-54
2023/11/23 10:36:30;;;;;;;21.27;9.93;;;10.30;99.90;;;;;;5046490;28;20037;-53
2023/11/23 10:38:59;;;;;;;20.33;10.30;;;10.30;99.90;;;;;;5048620;28;20435;-51
2023/11/23 10:41:25;;;;;;;21.25;9.13;;;10.30;99.90;;;;;;5047562;28;20136;-55
2023/11/23 10:43:51;;;;;;;22.83;10.67;;;10.40;99.90;;;;;;5031690;28;20135;-54
2023/11/23 10:46:18;;;;;;;18.93;9.63;;;10.40;99.90;;;;;;5035224;28;20104;-54
2023/11/23 10:48:45;;;;;;;18.37;9.57;;;10.40;99.90;;;;;;5050715;28;20029;-54
2023/11/23 10:51:11;;;;;;;21.13;9.17;;;10.40;99.90;;;;;;5043051;28;20092;-53
2023/11/23 10:53:41;;;;;;;20.23;9.60;;;10.50;99.90;;;;;;5045859;28;20073;-54
2023/11/23 10:56:21;;;;;;;17.90;8.93;;;10.50;99.90;;;;;;5041894;28;20033;-49
2023/11/23 10:58:48;;;;;;;;;;;10.60;99.90;;;;;;5052153;28;20474;-48
2023/11/23 11:01:21;;;;;;;17.40;8.00;;;10.70;99.90;;;;;;5041046;28;19916;-50
2023/11/23 11:03:48;;;;;;;14.60;8.10;;;10.90;99.90;;;;;;5031237;28;20061;-48
2023/11/23 11:06:16;;;;;;;16.03;8.23;;;11.00;99.90;;;;;;5032385;28;20516;-48
2023/11/23 11:08:49;;;;;;;13.27;8.13;;;11.00;99.90;;;;;;5031380;28;20088;-49
2023/11/23 11:11:26;;;;;;;13.00;7.23;;;11.00;99.90;;;;;;5030805;28;20037;-49
2023/11/23 11:14:03;;;;;;;13.93;7.10;;;11.00;99.90;;;;;;5031053;28;20041;-53
2023/11/23 11:16:34;;;;;;;13.97;7.43;;;11.00;99.90;;;;;;5044668;28;20102;-54
2023/11/23 11:19:05;;;;;;;16.73;8.40;;;11.00;99.90;;;;;;5032252;28;20120;-54
2023/11/23 11:21:48;;;;;;;15.83;7.53;;;10.90;99.90;;;;;;5031543;28;20534;-54
2023/11/23 11:24:21;;;;;;;13.03;6.70;;;10.90;99.90;;;;;;5041154;28;20032;-54
2023/11/23 11:26:48;;;;;;;14.87;6.60;;;10.90;99.90;;;;;;5051096;28;20025;-53
2023/11/23 11:29:16;;;;;;;13.63;6.33;;;10.90;99.90;;;;;;5038309;28;20167;-54
2023/11/23 11:31:44;;;;;;;13.30;6.50;;;10.90;99.90;;;;;;5039225;28;20029;-54
2023/11/23 11:34:22;;;;;;;10.37;6.30;;;10.90;99.90;;;;;;5030154;28;20044;-51
2023/11/23 11:36:58;;;;;;;12.03;5.67;;;10.90;99.90;;;;;;5036451;28;20028;-54
2023/11/23 11:39:32;;;;;;;14.00;5.93;;;10.90;99.90;;;;;;5049918;28;20033;-53
2023/11/23 11:41:59;;;;;;;12.50;5.90;;;10.90;99.90;;;;;;5050296;28;20044;-51
2023/11/23 11:44:29;;;;;;;11.33;5.10;;;10.90;99.90;;;;;;5050184;28;20033;-52
2023/11/23 11:46:56;;;;;;;12.50;6.00;;;10.90;99.90;;;;;;5050525;28;20063;-53
2023/11/23 11:49:24;;;;;;;14.47;5.93;;;10.90;99.90;;;;;;5049251;28;20029;-51
2023/11/23 11:51:50;;;;;;;11.73;5.47;;;11.00;99.90;;;;;;5042933;28;20112;-54
2023/11/23 11:54:19;;;;;;;11.47;5.90;;;11.00;99.90;;;;;;5032527;28;20544;-50
2023/11/23 11:56:47;;;;;;;9.40;4.77;;;11.00;99.90;;;;;;5043827;28;20053;-54
2023/11/23 11:59:13;;;;;;;11.93;5.90;;;11.00;99.90;;;;;;5028641;28;20045;-54
2023/11/23 12:01:38;;;;;;;12.03;4.97;;;11.10;99.90;;;;;;5036218;28;20025;-54
2023/11/23 12:04:04;;;;;;;7.70;4.63;;;11.00;99.90;;;;;;5040775;28;20036;-53
2023/11/23 12:06:30;;;;;;;8.67;4.73;;;11.10;99.90;;;;;;5029067;28;20088;-53
2023/11/23 12:08:57;;;;;;;10.70;4.80;;;11.10;99.90;;;;;;5030053;28;20171;-51
2023/11/23 12:11:26;;;;;;;10.20;4.93;;;11.20;99.90;;;;;;5030250;28;20040;-52
2023/11/23 12:13:53;;;;;;;10.77;5.27;;;11.20;99.90;;;;;;5030761;28;20033;-51
2023/11/23 12:16:20;;;;;;;11.20;4.40;;;11.20;99.90;;;;;;5041339;28;20036;-50
2023/11/23 12:18:45;;;;;;;11.97;4.40;;;11.20;99.90;;;;;;5049834;28;20043;-50
2023/11/23 12:21:14;;;;;;;11.80;5.27;;;11.20;99.90;;;;;;5041627;28;20037;-51
2023/11/23 12:23:44;;;;;;;10.93;4.90;;;11.20;99.90;;;;;;5044116;28;20013;-51
2023/11/23 12:26:12;;;;;;;6.27;3.80;;;11.20;99.90;;;;;;5029252;28;20454;-51
2023/11/23 12:28:38;;;;;;;11.40;4.57;;;11.30;99.90;;;;;;5034157;28;20029;-53
2023/11/23 12:31:04;;;;;;;11.37;4.33;;;11.30;99.90;;;;;;5040790;28;20040;-54
2023/11/23 12:33:30;;;;;;;7.60;3.93;;;11.30;99.90;;;;;;5049340;28;20028;-50
2023/11/23 12:35:57;;;;;;;11.87;4.50;;;11.30;99.90;;;;;;5047957;28;20082;-54
2023/11/23 12:38:23;;;;;;;9.17;4.20;;;11.30;99.90;;;;;;5037487;28;20033;-53
2023/11/23 12:40:49;;;;;;;10.37;3.77;;;11.30;99.90;;;;;;5044293;28;20044;-51